createdAt,value
2022-09-28T00:01:06.887Z,99525.44
2022-09-28T00:03:34.905Z,99527.75
2022-09-28T00:06:03.763Z,99528.34
2022-09-28T00:08:33.483Z,99519.25
2022-09-28T00:11:01.401Z,99524.16
2022-09-28T00:13:31.762Z,99528.69
2022-09-28T00:16:05.071Z,99524.25
2022-09-28T00:18:33.462Z,99527.31
2022-09-28T00:21:02.671Z,99526.31
2022-09-28T00:23:32.014Z,99526.72
2022-09-28T00:26:03.382Z,99522.56
2022-09-28T00:28:31.455Z,99521.63
2022-09-28T00:30:59.435Z,99511.09
2022-09-28T00:33:29.496Z,99513.50
2022-09-28T00:35:58.152Z,99516.06
2022-09-28T00:38:29.033Z,99510.06
2022-09-28T00:40:59.668Z,99506.69
2022-09-28T00:43:28.107Z,99505.25
2022-09-28T00:46:00.451Z,99499.19
2022-09-28T00:48:31.818Z,99499.84
2022-09-28T00:51:03.411Z,99506.69
2022-09-28T00:53:34.827Z,99509.84
2022-09-28T00:56:09.313Z,99501.72
2022-09-28T00:58:42.079Z,99496.25
2022-09-28T01:01:10.178Z,99494.88
2022-09-28T01:03:41.283Z,99494.06
2022-09-28T01:06:10.745Z,99491.53
2022-09-28T01:08:40.180Z,99494.44
2022-09-28T01:11:09.896Z,99487.16
2022-09-28T01:13:38.913Z,99490.22
2022-09-28T01:16:15.844Z,99481.50
2022-09-28T01:18:53.927Z,99488.00
2022-09-28T01:21:23.468Z,99488.78
2022-09-28T01:24:15.848Z,99486.34
2022-09-28T01:26:51.306Z,99484.06
2022-09-28T01:29:30.552Z,99482.00
2022-09-28T01:32:08.390Z,99478.13
2022-09-28T01:34:42.598Z,99476.28
2022-09-28T01:37:14.638Z,99475.84
2022-09-28T01:39:46.899Z,99482.31
2022-09-28T01:42:23.000Z,99481.09
2022-09-28T01:44:54.048Z,99481.72
2022-09-28T01:47:25.284Z,99481.88
2022-09-28T01:49:59.764Z,99476.78
2022-09-28T01:52:33.843Z,99472.56
2022-09-28T01:55:08.553Z,99473.41
2022-09-28T01:57:43.537Z,99474.03
2022-09-28T02:00:15.166Z,99461.81
2022-09-28T02:02:48.403Z,99466.69
2022-09-28T02:05:19.618Z,99467.91
2022-09-28T02:07:54.541Z,99472.50
2022-09-28T02:10:25.903Z,99472.06
2022-09-28T02:13:01.397Z,99474.00
2022-09-28T02:15:34.609Z,99470.13
2022-09-28T02:18:02.724Z,99468.06
2022-09-28T02:20:33.105Z,99461.38
2022-09-28T02:23:03.427Z,99455.34
2022-09-28T02:25:37.987Z,99461.38
2022-09-28T02:28:08.787Z,99464.31
2022-09-28T02:30:38.978Z,99459.03
2022-09-28T02:33:11.966Z,99461.72
2022-09-28T02:35:42.228Z,99460.53
2022-09-28T02:38:11.576Z,99453.47
2022-09-28T02:40:40.049Z,99453.88
2022-09-28T02:43:17.891Z,99456.16
2022-09-28T02:46:07.710Z,99454.22
2022-09-28T02:49:20.422Z,99454.22
2022-09-28T02:52:02.427Z,99448.16
2022-09-28T02:54:54.396Z,99446.22
2022-09-28T02:57:36.192Z,99446.94
2022-09-28T03:00:10.595Z,99451.09
2022-09-28T03:02:48.306Z,99456.44
2022-09-28T03:05:20.841Z,99458.72
2022-09-28T03:07:57.529Z,99456.19
2022-09-28T03:10:31.084Z,99452.31
2022-09-28T03:12:59.911Z,99456.91
2022-09-28T03:15:31.540Z,99458.50
2022-09-28T03:18:00.028Z,99451.59
2022-09-28T03:20:29.009Z,99453.41
2022-09-28T03:23:22.841Z,99450.88
2022-09-28T03:25:45.107Z,99452.59
2022-09-28T03:28:12.913Z,99449.06
2022-09-28T03:30:43.090Z,99450.41
2022-09-28T03:33:11.041Z,99450.66
2022-09-28T03:35:38.869Z,99448.22
2022-09-28T03:38:06.807Z,99447.13
2022-09-28T03:40:34.847Z,99443.16
2022-09-28T03:43:02.831Z,99444.59
2022-09-28T03:45:30.711Z,99439.38
2022-09-28T03:48:00.384Z,99440.84
2022-09-28T03:50:28.816Z,99428.13
2022-09-28T03:52:57.006Z,99443.63
2022-09-28T03:55:25.013Z,99441.31
2022-09-28T03:57:56.156Z,99434.88
2022-09-28T04:00:24.251Z,99444.66
2022-09-28T04:02:52.263Z,99435.59
2022-09-28T04:05:21.552Z,99437.41
2022-09-28T04:07:49.385Z,99437.28
2022-09-28T04:10:17.532Z,99437.19
2022-09-28T04:12:45.965Z,99435.91
2022-09-28T04:15:13.886Z,99435.91
2022-09-28T04:17:41.810Z,99436.84
2022-09-28T04:20:10.323Z,99444.44
2022-09-28T04:22:39.762Z,99445.09
2022-09-28T04:25:08.089Z,99446.88
2022-09-28T04:27:53.208Z,99446.84
2022-09-28T04:30:22.061Z,99446.25
2022-09-28T04:32:50.211Z,99444.78
2022-09-28T04:35:18.090Z,99444.78
2022-09-28T04:37:47.336Z,99448.78
2022-09-28T04:40:15.418Z,99449.78
2022-09-28T04:42:43.365Z,99457.75
2022-09-28T04:45:12.135Z,99454.97
2022-09-28T04:47:39.970Z,99445.53
2022-09-28T04:50:08.720Z,99445.28
2022-09-28T04:52:37.635Z,99448.69
2022-09-28T04:55:07.875Z,99447.28
2022-09-28T04:57:36.562Z,99440.50
2022-09-28T05:00:05.824Z,99449.69
2022-09-28T05:02:33.900Z,99442.28
2022-09-28T05:05:01.869Z,99444.69
2022-09-28T05:07:31.313Z,99448.69
2022-09-28T05:10:00.626Z,99443.63
2022-09-28T05:12:29.877Z,99446.03
2022-09-28T05:14:57.777Z,99444.94
2022-09-28T05:17:25.710Z,99452.69
2022-09-28T05:19:53.907Z,99456.59
2022-09-28T05:22:21.904Z,99449.69
2022-09-28T05:24:49.830Z,99448.94
2022-09-28T05:27:17.858Z,99441.81
2022-09-28T05:29:47.341Z,99442.41
2022-09-28T05:32:16.911Z,99448.69
2022-09-28T05:34:45.233Z,99441.56
2022-09-28T05:37:13.607Z,99446.63
2022-09-28T05:39:41.578Z,99436.50
2022-09-28T05:42:09.448Z,99446.63
2022-09-28T05:44:38.591Z,99441.09
2022-09-28T05:47:07.989Z,99446.03
2022-09-28T05:49:35.876Z,99443.38
2022-09-28T05:52:03.883Z,99450.88
2022-09-28T05:54:31.751Z,99451.59
2022-09-28T05:56:59.724Z,99446.75
2022-09-28T05:59:27.652Z,99448.59
2022-09-28T06:01:55.561Z,99449.31
2022-09-28T06:04:26.095Z,99448.94
2022-09-28T06:06:54.347Z,99449.91
2022-09-28T06:09:25.897Z,99451.47
2022-09-28T06:11:54.245Z,99451.97
2022-09-28T06:14:22.277Z,99451.72
2022-09-28T06:16:50.077Z,99455.72
2022-09-28T06:19:18.139Z,99460.66
2022-09-28T06:21:48.779Z,99453.41
2022-09-28T06:24:16.991Z,99461.78
2022-09-28T06:26:45.019Z,99457.06
2022-09-28T06:29:18.689Z,99452.94
2022-09-28T06:31:48.424Z,99462.13
2022-09-28T06:34:16.924Z,99470.84
2022-09-28T06:36:45.281Z,99465.50
2022-09-28T06:39:14.790Z,99474.81
2022-09-28T06:41:42.657Z,99474.47
2022-09-28T06:44:10.780Z,99471.22
2022-09-28T06:46:40.413Z,99474.81
2022-09-28T06:49:09.340Z,99484.88
2022-09-28T06:51:37.775Z,99491.28
2022-09-28T06:54:05.814Z,99485.25
2022-09-28T06:56:35.172Z,99502.91
2022-09-28T06:59:03.192Z,99487.28
2022-09-28T07:01:31.398Z,99490.06
2022-09-28T07:04:01.859Z,99478.56
2022-09-28T07:06:31.657Z,99486.97
2022-09-28T07:09:19.032Z,99483.25
2022-09-28T07:11:52.894Z,99489.69
2022-09-28T07:14:41.697Z,99484.13
2022-09-28T07:17:14.210Z,99497.69
2022-09-28T07:19:42.479Z,99490.28
2022-09-28T07:22:18.618Z,99496.81
2022-09-28T07:24:48.625Z,99502.41
2022-09-28T07:27:18.289Z,99506.84
2022-09-28T07:29:46.273Z,99508.81
2022-09-28T07:32:14.144Z,99506.25
2022-09-28T07:34:44.870Z,99505.03
2022-09-28T07:37:13.724Z,99505.72
2022-09-28T07:40:02.314Z,99506.81
2022-09-28T07:42:31.772Z,99512.03
2022-09-28T07:44:59.822Z,99513.44
2022-09-28T07:47:33.878Z,99509.53
2022-09-28T07:50:02.816Z,99509.06
2022-09-28T07:52:30.715Z,99516.72
2022-09-28T07:55:00.475Z,99521.53
2022-09-28T07:57:33.687Z,99521.88
2022-09-28T08:00:02.315Z,99530.91
2022-09-28T08:02:32.363Z,99529.47
2022-09-28T08:05:00.430Z,99527.66
2022-09-28T08:07:28.575Z,99532.13
2022-09-28T08:09:56.461Z,99527.03
2022-09-28T08:12:24.449Z,99535.47
2022-09-28T08:14:53.715Z,99539.34
2022-09-28T08:17:21.602Z,99540.19
2022-09-28T08:20:06.977Z,99534.72
2022-09-28T08:22:34.906Z,99538.69
2022-09-28T08:25:03.181Z,99549.63
2022-09-28T08:27:31.090Z,99547.16
2022-09-28T08:30:00.400Z,99544.81
2022-09-28T08:32:28.309Z,99550.47
2022-09-28T08:34:57.129Z,99551.16
2022-09-28T08:37:25.071Z,99550.63
2022-09-28T08:39:52.937Z,99548.72
2022-09-28T08:42:33.645Z,99551.25
2022-09-28T08:45:09.386Z,99563.63
2022-09-28T08:48:04.059Z,99550.63
2022-09-28T08:50:34.245Z,99556.81
2022-09-28T08:53:13.303Z,99555.47
2022-09-28T08:55:45.239Z,99554.56
2022-09-28T08:58:16.717Z,99559.41
2022-09-28T09:00:48.707Z,99560.78
2022-09-28T09:03:21.400Z,99557.91
2022-09-28T09:06:00.792Z,99564.53
2022-09-28T09:08:42.446Z,99560.53
2022-09-28T09:11:24.507Z,99567.50
2022-09-28T09:14:08.144Z,99567.13
2022-09-28T09:16:49.414Z,99572.88
2022-09-28T09:19:24.010Z,99561.44
2022-09-28T09:22:01.605Z,99564.84
2022-09-28T09:24:37.309Z,99563.63
2022-09-28T09:27:38.067Z,99570.53
2022-09-28T09:30:10.985Z,99566.34
2022-09-28T09:32:53.417Z,99568.66
2022-09-28T09:35:33.513Z,99571.66
2022-09-28T09:38:17.458Z,99572.72
2022-09-28T09:40:58.715Z,99574.53
2022-09-28T09:43:59.242Z,99579.47
2022-09-28T09:46:36.898Z,99575.66
2022-09-28T09:49:15.058Z,99576.91
2022-09-28T09:51:48.302Z,99578.31
2022-09-28T09:54:22.284Z,99582.69
2022-09-28T09:56:56.719Z,99581.13
2022-09-28T09:59:31.165Z,99575.22
2022-09-28T10:01:59.838Z,99578.63
2022-09-28T10:04:36.293Z,99575.09
2022-09-28T10:07:07.192Z,99582.13
2022-09-28T10:09:39.372Z,99574.06
2022-09-28T10:12:12.047Z,99573.72
2022-09-28T10:14:39.938Z,99572.19
2022-09-28T10:17:08.586Z,99571.56
2022-09-28T10:19:38.350Z,99568.50
2022-09-28T10:22:07.769Z,99574.13
2022-09-28T10:24:39.820Z,99580.63
2022-09-28T10:27:13.162Z,99576.44
2022-09-28T10:29:47.075Z,99580.31
2022-09-28T10:32:24.430Z,99578.50
2022-09-28T10:34:55.229Z,99576.84
2022-09-28T10:37:24.360Z,99586.66
2022-09-28T10:39:55.645Z,99577.41
2022-09-28T10:42:28.130Z,99575.84
2022-09-28T10:44:59.272Z,99579.16
2022-09-28T10:47:30.852Z,99578.59
2022-09-28T10:50:01.684Z,99585.63
2022-09-28T10:52:33.519Z,99575.34
2022-09-28T10:55:02.454Z,99573.53
2022-09-28T10:57:34.714Z,99578.72
2022-09-28T11:00:03.492Z,99566.41
2022-09-28T11:02:35.883Z,99573.91
2022-09-28T11:05:08.023Z,99576.16
2022-09-28T11:07:47.076Z,99575.16
2022-09-28T11:10:23.833Z,99574.81
2022-09-28T11:12:53.569Z,99573.44
2022-09-28T11:15:24.176Z,99573.97
2022-09-28T11:17:52.701Z,99577.44
2022-09-28T11:20:36.055Z,99576.34
2022-09-28T11:23:20.590Z,99574.16
2022-09-28T11:26:01.084Z,99579.91
2022-09-28T11:28:33.285Z,99570.91
2022-09-28T11:31:02.627Z,99572.50
2022-09-28T11:33:33.827Z,99577.56
2022-09-28T11:36:24.407Z,99579.38
2022-09-28T11:39:02.004Z,99580.78
2022-09-28T11:41:47.468Z,99575.81
2022-09-28T11:44:33.673Z,99575.09
2022-09-28T11:47:14.389Z,99579.75
2022-09-28T11:49:47.691Z,99575.50
2022-09-28T11:52:23.757Z,99576.66
2022-09-28T11:54:56.169Z,99579.53
2022-09-28T11:57:29.767Z,99574.50
2022-09-28T12:00:01.116Z,99579.19
2022-09-28T12:02:35.608Z,99579.09
2022-09-28T12:05:18.367Z,99574.25
2022-09-28T12:07:54.520Z,99577.25
2022-09-28T12:10:34.561Z,99579.00
2022-09-28T12:13:09.843Z,99578.75
2022-09-28T12:16:11.635Z,99580.91
2022-09-28T12:18:41.295Z,99582.88
2022-09-28T12:21:20.101Z,99588.84
2022-09-28T12:23:50.746Z,99597.38
2022-09-28T12:26:30.512Z,99595.59
2022-09-28T12:29:03.667Z,99585.56
2022-09-28T12:31:38.908Z,99586.94
2022-09-28T12:34:07.097Z,99591.31
2022-09-28T12:36:48.058Z,99590.41
2022-09-28T12:39:57.029Z,99592.06
2022-09-28T12:42:44.284Z,99591.09
2022-09-28T12:46:06.726Z,99586.88
2022-09-28T12:49:47.269Z,99592.06
2022-09-28T12:51:51.490Z,99587.56
2022-09-28T12:54:39.930Z,99595.31
2022-09-28T12:57:31.126Z,99595.97
2022-09-28T13:00:05.518Z,99591.00
2022-09-28T13:03:07.845Z,99586.94
2022-09-28T13:06:17.683Z,99595.31
2022-09-28T13:08:56.845Z,99598.06
2022-09-28T13:11:33.949Z,99595.00
2022-09-28T13:14:24.250Z,99600.03
2022-09-28T13:17:00.656Z,99607.88
2022-09-28T13:19:37.193Z,99605.56
2022-09-28T13:22:22.361Z,99605.88
2022-09-28T13:24:52.612Z,99607.78
2022-09-28T13:27:30.168Z,99609.94
2022-09-28T13:30:02.129Z,99608.25
2022-09-28T13:32:32.186Z,99601.72
2022-09-28T13:35:02.184Z,99595.44
2022-09-28T13:37:30.957Z,99611.19
2022-09-28T13:40:05.958Z,99597.22
2022-09-28T13:42:56.538Z,99608.28
2022-09-28T13:45:48.612Z,99607.84
2022-09-28T13:48:21.416Z,99602.09
2022-09-28T13:51:09.388Z,99609.75
2022-09-28T13:53:51.082Z,99601.28
2022-09-28T13:56:31.377Z,99605.97
2022-09-28T13:59:04.289Z,99605.47
2022-09-28T14:01:40.729Z,99611.63
2022-09-28T14:04:17.682Z,99604.53
2022-09-28T14:06:52.443Z,99604.28
2022-09-28T14:09:39.887Z,99604.00
2022-09-28T14:12:45.144Z,99600.31
2022-09-28T14:15:48.733Z,99605.41
2022-09-28T14:18:32.391Z,99602.13
2022-09-28T14:21:30.261Z,99604.34
2022-09-28T14:24:18.786Z,99601.81
2022-09-28T14:27:13.397Z,99607.63
2022-09-28T14:29:41.958Z,99607.06
2022-09-28T14:32:24.503Z,99607.03
2022-09-28T14:35:02.397Z,99606.59
2022-09-28T14:37:50.929Z,99612.50
2022-09-28T14:40:38.956Z,99601.81
2022-09-28T14:43:28.827Z,99607.88
2022-09-28T14:46:29.370Z,99614.56
2022-09-28T14:49:02.147Z,99616.19
2022-09-28T14:52:04.254Z,99617.81
2022-09-28T14:54:43.057Z,99614.09
2022-09-28T14:57:18.474Z,99615.25
2022-09-28T14:59:47.817Z,99610.31
2022-09-28T15:02:24.864Z,99610.13
2022-09-28T15:04:59.890Z,99616.31
2022-09-28T15:07:34.434Z,99615.31
2022-09-28T15:10:03.313Z,99625.28
2022-09-28T15:12:32.310Z,99622.97
2022-09-28T15:15:02.537Z,99619.09
2022-09-28T15:17:39.151Z,99619.47
2022-09-28T15:20:25.324Z,99620.72
2022-09-28T15:22:57.721Z,99622.41
2022-09-28T15:25:28.000Z,99619.78
2022-09-28T15:27:57.630Z,99629.78
2022-09-28T15:30:32.022Z,99632.63
2022-09-28T15:33:15.643Z,99630.66
2022-09-28T15:35:43.988Z,99637.78
2022-09-28T15:38:17.154Z,99634.25
2022-09-28T15:40:47.796Z,99641.31
2022-09-28T15:43:26.976Z,99647.13
2022-09-28T15:46:02.825Z,99654.53
2022-09-28T15:48:34.934Z,99654.72
2022-09-28T15:51:10.396Z,99653.88
2022-09-28T15:53:44.011Z,99654.84
2022-09-28T15:56:12.292Z,99654.16
2022-09-28T15:58:40.717Z,99654.19
2022-09-28T16:01:37.141Z,99653.22
2022-09-28T16:04:37.656Z,99656.47
2022-09-28T16:07:37.062Z,99660.88
2022-09-28T16:10:33.640Z,99664.28
2022-09-28T16:13:11.931Z,99669.81
2022-09-28T16:15:40.992Z,99664.59
2022-09-28T16:18:20.243Z,99678.44
2022-09-28T16:20:50.900Z,99675.75
2022-09-28T16:23:23.559Z,99672.25
2022-09-28T16:25:56.522Z,99670.53
2022-09-28T16:28:48.789Z,99681.69
2022-09-28T16:31:33.673Z,99681.25
2022-09-28T16:34:11.764Z,99677.59
2022-09-28T16:36:45.523Z,99677.97
2022-09-28T16:39:14.257Z,99684.91
2022-09-28T16:41:46.950Z,99681.94
2022-09-28T16:44:20.454Z,99682.22
2022-09-28T16:46:48.489Z,99682.22
2022-09-28T16:49:20.858Z,99686.03
2022-09-28T16:51:48.988Z,99683.03
2022-09-28T16:54:37.260Z,99688.81
2022-09-28T16:57:09.210Z,99698.13
2022-09-28T16:59:38.527Z,99693.03
2022-09-28T17:05:08.271Z,99696.66
2022-09-28T17:07:36.380Z,99697.09
2022-09-28T17:10:04.587Z,99704.38
2022-09-28T17:12:33.954Z,99696.44
2022-09-28T17:15:01.851Z,99697.69
2022-09-28T17:17:31.525Z,99701.91
2022-09-28T17:19:59.577Z,99700.47
2022-09-28T17:22:27.486Z,99708.34
2022-09-28T17:24:55.331Z,99715.69
2022-09-28T17:27:23.225Z,99712.53
2022-09-28T17:29:52.531Z,99715.06
2022-09-28T17:32:20.592Z,99721.06
2022-09-28T17:35:00.925Z,99718.88
2022-09-28T17:37:36.534Z,99720.00
2022-09-28T17:40:12.029Z,99714.91
2022-09-28T17:42:39.944Z,99724.03
2022-09-28T17:45:12.561Z,99728.22
2022-09-28T17:47:40.541Z,99725.97
2022-09-28T17:50:21.383Z,99723.28
2022-09-28T17:52:52.550Z,99724.06
2022-09-28T17:55:22.048Z,99725.16
2022-09-28T17:57:50.578Z,99730.50
2022-09-28T18:00:20.131Z,99736.13
2022-09-28T18:02:48.768Z,99735.50
2022-09-28T18:05:16.821Z,99740.16
2022-09-28T18:07:47.966Z,99739.53
2022-09-28T18:10:26.360Z,99744.31
2022-09-28T18:12:54.522Z,99737.41
2022-09-28T18:15:23.830Z,99744.19
2022-09-28T18:17:51.871Z,99746.38
2022-09-28T18:20:20.040Z,99743.00
2022-09-28T18:22:47.927Z,99746.66
2022-09-28T18:25:15.956Z,99754.81
2022-09-28T18:27:44.081Z,99750.28
2022-09-28T18:30:12.971Z,99751.28
2022-09-28T18:32:42.500Z,99749.19
2022-09-28T18:35:11.435Z,99750.28
2022-09-28T18:37:39.979Z,99758.09
2022-09-28T18:40:10.228Z,99756.53
2022-09-28T18:42:38.074Z,99757.13
2022-09-28T18:45:08.463Z,99758.84
2022-09-28T18:47:36.414Z,99761.16
2022-09-28T18:50:06.378Z,99765.75
2022-09-28T18:52:37.367Z,99763.50
2022-09-28T18:55:07.959Z,99770.78
2022-09-28T18:57:36.406Z,99775.53
2022-09-28T19:00:07.216Z,99774.53
2022-09-28T19:02:35.335Z,99769.59
2022-09-28T19:05:03.395Z,99776.88
2022-09-28T19:07:32.765Z,99783.19
2022-09-28T19:10:00.766Z,99793.03
2022-09-28T19:12:28.748Z,99788.31
2022-09-28T19:14:56.868Z,99789.53
2022-09-28T19:17:24.783Z,99781.53
2022-09-28T19:19:52.753Z,99794.13
2022-09-28T19:22:20.697Z,99793.41
2022-09-28T19:24:49.922Z,99791.22
2022-09-28T19:27:19.008Z,99789.06
2022-09-28T19:29:47.066Z,99795.50
2022-09-28T19:32:15.366Z,99796.72
2022-09-28T19:34:43.173Z,99798.03
2022-09-28T19:37:11.279Z,99802.66
2022-09-28T19:39:39.096Z,99810.66
2022-09-28T19:42:08.317Z,99809.78
2022-09-28T19:44:37.717Z,99810.19
2022-09-28T19:47:08.685Z,99813.59
2022-09-28T19:49:38.527Z,99818.66
2022-09-28T19:52:14.697Z,99819.88
2022-09-28T19:54:46.720Z,99817.94
2022-09-28T19:57:16.264Z,99822.19
2022-09-28T19:59:45.908Z,99821.59
2022-09-28T20:02:15.312Z,99821.44
2022-09-28T20:04:43.117Z,99820.72
2022-09-28T20:07:11.148Z,99817.09
2022-09-28T20:09:39.028Z,99822.03
2022-09-28T20:12:06.943Z,99825.91
2022-09-28T20:14:39.480Z,99828.09
2022-09-28T20:17:08.220Z,99828.34
2022-09-28T20:19:36.150Z,99832.34
2022-09-28T20:22:04.461Z,99833.41
2022-09-28T20:24:32.947Z,99836.56
2022-09-28T20:27:01.463Z,99838.41
2022-09-28T20:29:31.780Z,99835.72
2022-09-28T20:32:01.267Z,99832.47
2022-09-28T20:34:29.145Z,99838.78
2022-09-28T20:36:57.006Z,99839.53
2022-09-28T20:39:24.862Z,99846.81
2022-09-28T20:41:52.718Z,99843.28
2022-09-28T20:44:21.252Z,99845.34
2022-09-28T20:46:51.648Z,99848.50
2022-09-28T20:49:27.545Z,99844.16
2022-09-28T20:51:55.630Z,99845.47
2022-09-28T20:54:23.578Z,99847.28
2022-09-28T20:56:54.349Z,99844.25
2022-09-28T20:59:25.989Z,99849.44
2022-09-28T21:01:53.934Z,99846.66
2022-09-28T21:04:25.111Z,99848.84
2022-09-28T21:06:53.270Z,99853.56
2022-09-28T21:09:21.294Z,99854.31
2022-09-28T21:11:49.325Z,99853.19
2022-09-28T21:14:17.230Z,99850.31
2022-09-28T21:16:45.346Z,99851.06
2022-09-28T21:19:13.463Z,99854.91
2022-09-28T21:21:42.940Z,99853.63
2022-09-28T21:24:10.969Z,99856.03
2022-09-28T21:26:39.385Z,99852.50
2022-09-28T21:29:11.594Z,99857.38
2022-09-28T21:31:41.800Z,99862.22
2022-09-28T21:34:13.934Z,99862.97
2022-09-28T21:36:43.680Z,99860.28
2022-09-28T21:39:11.635Z,99857.13
2022-09-28T21:41:39.887Z,99858.22
2022-09-28T21:44:08.263Z,99864.84
2022-09-28T21:46:39.557Z,99868.47
2022-09-28T21:49:09.427Z,99868.59
2022-09-28T21:51:40.370Z,99868.59
2022-09-28T21:54:09.871Z,99868.97
2022-09-28T21:56:37.775Z,99871.13
2022-09-28T21:59:05.614Z,99869.69
2022-09-28T22:01:33.618Z,99872.22
2022-09-28T22:04:01.858Z,99874.28
2022-09-28T22:06:29.823Z,99872.34
2022-09-28T22:08:58.414Z,99873.88
2022-09-28T22:11:29.556Z,99872.66
2022-09-28T22:13:59.297Z,99873.97
2022-09-28T22:16:29.458Z,99873.72
2022-09-28T22:18:58.089Z,99875.91
2022-09-28T22:21:27.983Z,99876.63
2022-09-28T22:24:00.243Z,99879.66
2022-09-28T22:26:30.477Z,99886.41
2022-09-28T22:29:00.228Z,99890.03
2022-09-28T22:31:30.190Z,99878.31
2022-09-28T22:33:58.894Z,99888.13
2022-09-28T22:36:27.674Z,99887.38
2022-09-28T22:38:56.068Z,99888.56
2022-09-28T22:41:24.982Z,99885.41
2022-09-28T22:43:55.751Z,99883.94
2022-09-28T22:46:25.291Z,99889.72
2022-09-28T22:48:54.998Z,99889.59
2022-09-28T22:51:25.095Z,99883.56
2022-09-28T22:53:52.964Z,99885.56
2022-09-28T22:56:20.838Z,99884.88
2022-09-28T22:58:49.117Z,99891.88
2022-09-28T23:01:21.133Z,99892.13
2022-09-28T23:03:49.805Z,99898.50
2022-09-28T23:06:19.797Z,99897.78
2022-09-28T23:08:48.625Z,99904.41
2022-09-28T23:11:17.270Z,99907.69
2022-09-28T23:13:49.894Z,99907.47
2022-09-28T23:16:20.043Z,99904.53
2022-09-28T23:18:49.247Z,99903.66
2022-09-28T23:21:18.977Z,99901.13
2022-09-28T23:23:48.360Z,99892.38
2022-09-28T23:26:17.818Z,99902.41
2022-09-28T23:28:46.552Z,99893.44
2022-09-28T23:31:17.102Z,99898.06
2022-09-28T23:33:46.470Z,99892.19
2022-09-28T23:36:14.697Z,99892.31
2022-09-28T23:38:43.132Z,99896.69
2022-09-28T23:41:11.424Z,99901.06
2022-09-28T23:43:39.341Z,99899.19
2022-09-28T23:46:07.930Z,99899.81
2022-09-28T23:48:35.859Z,99903.22
2022-09-28T23:51:05.449Z,99902.66
2022-09-28T23:53:33.377Z,99904.38
2022-09-28T23:56:02.002Z,99901.59
2022-09-28T23:58:30.026Z,99904.81
